GCFIZ EGBJ-EGHP
Flight info
| Callsign | GCFIZ |
|---|---|
| Flight time | 0h 37m |
| Altitude | 2000 |
| Route | EGBJ NAXAT SITNU GAVGO BEDEK EGHP |
| Aircraft | C172/L-G/L |
Departure
| Time | 2026-05-06 12:17 |
|---|---|
| Airport | Gloucestershire Airport (EGBJ) |
Arrival
| Time | 2026-05-06 12:54 |
|---|---|
| Airport | Popham Airfield (EGHP) |
| Time | Latitude | Longitude | Altitude | Speed | Heading |
|---|---|---|---|---|---|
| 2026-05-06 11:42 | 51.89320 | -2.15822 | 105 ft | 0 kts | 263° |
| 2026-05-06 12:10 | 51.89352 | -2.15856 | 105 ft | 9 kts | 327° |
| 2026-05-06 12:10 | 51.89376 | -2.15960 | 105 ft | 8 kts | 255° |
| 2026-05-06 12:10 | 51.89331 | -2.16032 | 105 ft | 10 kts | 217° |
| 2026-05-06 12:11 | 51.89272 | -2.16101 | 105 ft | 11 kts | 215° |
| 2026-05-06 12:11 | 51.89214 | -2.16165 | 105 ft | 9 kts | 217° |
| 2026-05-06 12:11 | 51.89162 | -2.16224 | 105 ft | 12 kts | 214° |
| 2026-05-06 12:11 | 51.89097 | -2.16296 | 105 ft | 9 kts | 211° |
| 2026-05-06 12:12 | 51.89046 | -2.16366 | 105 ft | 9 kts | 242° |
| 2026-05-06 12:12 | 51.89029 | -2.16462 | 105 ft | 10 kts | 251° |
| 2026-05-06 12:12 | 51.88974 | -2.16503 | 105 ft | 10 kts | 175° |
| 2026-05-06 12:12 | 51.88902 | -2.16524 | 105 ft | 9 kts | 220° |
| 2026-05-06 12:13 | 51.88866 | -2.16604 | 105 ft | 6 kts | 250° |
| 2026-05-06 12:13 | 51.88857 | -2.16674 | 105 ft | 0 kts | 266° |
| 2026-05-06 12:13 | 51.88857 | -2.16676 | 105 ft | 0 kts | 267° |
| 2026-05-06 12:14 | 51.88856 | -2.16705 | 105 ft | 2 kts | 269° |
| 2026-05-06 12:14 | 51.88856 | -2.16711 | 105 ft | 0 kts | 271° |
| 2026-05-06 12:14 | 51.88856 | -2.16712 | 105 ft | 1 kts | 272° |
| 2026-05-06 12:14 | 51.88884 | -2.16784 | 105 ft | 11 kts | 3° |
| 2026-05-06 12:15 | 51.88898 | -2.16776 | 105 ft | 0 kts | 39° |
| 2026-05-06 12:15 | 51.88975 | -2.16694 | 105 ft | 40 kts | 33° |
| 2026-05-06 12:16 | 51.89322 | -2.16307 | 159 ft | 68 kts | 35° |
| 2026-05-06 12:16 | 51.89731 | -2.15851 | 324 ft | 74 kts | 36° |
| 2026-05-06 12:16 | 51.90172 | -2.15408 | 500 ft | 77 kts | 16° |
| 2026-05-06 12:16 | 51.90699 | -2.15524 | 678 ft | 80 kts | 329° |
| 2026-05-06 12:17 | 51.91096 | -2.16189 | 862 ft | 84 kts | 308° |
| 2026-05-06 12:17 | 51.91434 | -2.16986 | 1039 ft | 88 kts | 294° |
| 2026-05-06 12:17 | 51.91427 | -2.17964 | 1211 ft | 92 kts | 247° |
| 2026-05-06 12:17 | 51.90996 | -2.18742 | 1390 ft | 94 kts | 219° |
| 2026-05-06 12:18 | 51.90432 | -2.19273 | 1561 ft | 96 kts | 191° |
| 2026-05-06 12:18 | 51.89753 | -2.19303 | 1741 ft | 97 kts | 178° |
| 2026-05-06 12:18 | 51.89082 | -2.19205 | 1911 ft | 98 kts | 162° |
| 2026-05-06 12:18 | 51.88547 | -2.18498 | 2019 ft | 106 kts | 129° |
| 2026-05-06 12:19 | 51.88086 | -2.17476 | 1999 ft | 119 kts | 126° |
| 2026-05-06 12:19 | 51.87608 | -2.16335 | 1993 ft | 125 kts | 123° |
| 2026-05-06 12:19 | 51.87143 | -2.15121 | 1992 ft | 127 kts | 123° |
| 2026-05-06 12:19 | 51.86676 | -2.13897 | 1992 ft | 128 kts | 122° |
| 2026-05-06 12:20 | 51.86211 | -2.12680 | 1991 ft | 128 kts | 123° |
| 2026-05-06 12:20 | 51.85740 | -2.11448 | 1991 ft | 128 kts | 123° |
| 2026-05-06 12:20 | 51.85268 | -2.10216 | 1991 ft | 128 kts | 123° |
| 2026-05-06 12:20 | 51.84838 | -2.08955 | 1987 ft | 128 kts | 114° |
| 2026-05-06 12:21 | 51.84435 | -2.07654 | 1992 ft | 128 kts | 121° |
| 2026-05-06 12:21 | 51.83944 | -2.06435 | 1992 ft | 128 kts | 126° |
| 2026-05-06 12:21 | 51.83407 | -2.05285 | 1992 ft | 128 kts | 129° |
| 2026-05-06 12:21 | 51.82844 | -2.04156 | 1991 ft | 128 kts | 130° |
| 2026-05-06 12:22 | 51.82280 | -2.03055 | 1991 ft | 128 kts | 131° |
| 2026-05-06 12:22 | 51.81701 | -2.01939 | 1991 ft | 128 kts | 131° |
| 2026-05-06 12:22 | 51.81131 | -2.00840 | 1991 ft | 128 kts | 131° |
| 2026-05-06 12:22 | 51.80555 | -1.99733 | 1991 ft | 128 kts | 130° |
| 2026-05-06 12:23 | 51.79977 | -1.98622 | 1991 ft | 128 kts | 130° |
| 2026-05-06 12:23 | 51.79378 | -1.97544 | 1990 ft | 128 kts | 141° |
| 2026-05-06 12:23 | 51.78575 | -1.96956 | 1994 ft | 128 kts | 165° |
| 2026-05-06 12:23 | 51.77692 | -1.96692 | 1993 ft | 128 kts | 173° |
| 2026-05-06 12:24 | 51.76797 | -1.96567 | 1992 ft | 128 kts | 177° |
| 2026-05-06 12:24 | 51.75905 | -1.96499 | 1991 ft | 128 kts | 178° |
| 2026-05-06 12:24 | 51.75012 | -1.96453 | 1991 ft | 128 kts | 179° |
| 2026-05-06 12:24 | 51.74120 | -1.96415 | 1991 ft | 128 kts | 179° |
| 2026-05-06 12:25 | 51.73229 | -1.96381 | 1989 ft | 124 kts | 180° |
| 2026-05-06 12:25 | 51.72396 | -1.96355 | 1988 ft | 116 kts | 180° |
| 2026-05-06 12:25 | 51.71618 | -1.96330 | 1989 ft | 111 kts | 180° |
| 2026-05-06 12:25 | 51.70846 | -1.96303 | 1990 ft | 108 kts | 179° |
| 2026-05-06 12:26 | 51.70103 | -1.96274 | 1990 ft | 106 kts | 179° |
| 2026-05-06 12:26 | 51.69365 | -1.96245 | 1991 ft | 105 kts | 179° |
| 2026-05-06 12:26 | 51.68641 | -1.96174 | 1985 ft | 105 kts | 166° |
| 2026-05-06 12:26 | 51.68017 | -1.95602 | 1988 ft | 103 kts | 142° |
| 2026-05-06 12:27 | 51.67487 | -1.94801 | 1990 ft | 103 kts | 134° |
| 2026-05-06 12:27 | 51.67007 | -1.93931 | 1991 ft | 103 kts | 131° |
| 2026-05-06 12:27 | 51.66560 | -1.93038 | 1991 ft | 103 kts | 128° |
| 2026-05-06 12:27 | 51.66127 | -1.92117 | 1991 ft | 102 kts | 128° |
| 2026-05-06 12:28 | 51.65698 | -1.91193 | 1991 ft | 102 kts | 127° |
| 2026-05-06 12:28 | 51.65275 | -1.90279 | 1991 ft | 102 kts | 127° |
| 2026-05-06 12:28 | 51.64851 | -1.89361 | 1991 ft | 102 kts | 127° |
| 2026-05-06 12:28 | 51.64426 | -1.88436 | 1991 ft | 102 kts | 127° |
| 2026-05-06 12:29 | 51.64005 | -1.87521 | 1991 ft | 102 kts | 127° |
| 2026-05-06 12:29 | 51.63580 | -1.86599 | 1991 ft | 102 kts | 127° |
| 2026-05-06 12:29 | 51.63154 | -1.85675 | 1991 ft | 102 kts | 127° |
| 2026-05-06 12:29 | 51.62727 | -1.84759 | 1991 ft | 102 kts | 128° |
| 2026-05-06 12:30 | 51.62300 | -1.83844 | 1991 ft | 102 kts | 128° |
| 2026-05-06 12:30 | 51.61876 | -1.82931 | 1991 ft | 102 kts | 128° |
| 2026-05-06 12:30 | 51.61446 | -1.82003 | 1994 ft | 105 kts | 127° |
| 2026-05-06 12:30 | 51.61002 | -1.81037 | 1994 ft | 110 kts | 127° |
| 2026-05-06 12:31 | 51.60534 | -1.80023 | 1993 ft | 114 kts | 128° |
| 2026-05-06 12:31 | 51.60059 | -1.78995 | 1992 ft | 115 kts | 127° |
| 2026-05-06 12:31 | 51.59575 | -1.77947 | 1992 ft | 116 kts | 127° |
| 2026-05-06 12:31 | 51.59087 | -1.76893 | 1991 ft | 117 kts | 128° |
| 2026-05-06 12:32 | 51.58604 | -1.75849 | 1991 ft | 117 kts | 127° |
| 2026-05-06 12:32 | 51.58113 | -1.74788 | 1991 ft | 117 kts | 127° |
| 2026-05-06 12:32 | 51.57628 | -1.73738 | 1991 ft | 117 kts | 127° |
| 2026-05-06 12:32 | 51.57129 | -1.72658 | 1993 ft | 122 kts | 127° |
| 2026-05-06 12:33 | 51.56590 | -1.71561 | 1993 ft | 126 kts | 137° |
| 2026-05-06 12:33 | 51.55862 | -1.70738 | 1993 ft | 127 kts | 149° |
| 2026-05-06 12:33 | 51.55088 | -1.70042 | 1992 ft | 128 kts | 152° |
| 2026-05-06 12:33 | 51.54288 | -1.69380 | 1992 ft | 128 kts | 153° |
| 2026-05-06 12:34 | 51.53485 | -1.68737 | 1991 ft | 128 kts | 154° |
| 2026-05-06 12:34 | 51.52685 | -1.68103 | 1991 ft | 127 kts | 154° |
| 2026-05-06 12:34 | 51.51910 | -1.67495 | 1990 ft | 123 kts | 154° |
| 2026-05-06 12:34 | 51.51148 | -1.66899 | 1990 ft | 121 kts | 154° |
| 2026-05-06 12:35 | 51.50389 | -1.66302 | 1991 ft | 119 kts | 154° |
| 2026-05-06 12:35 | 51.49643 | -1.65717 | 1991 ft | 119 kts | 154° |
| 2026-05-06 12:35 | 51.48909 | -1.65140 | 1991 ft | 119 kts | 154° |
| 2026-05-06 12:35 | 51.48157 | -1.64550 | 1991 ft | 118 kts | 154° |
| 2026-05-06 12:36 | 51.47422 | -1.63973 | 1991 ft | 118 kts | 154° |
| 2026-05-06 12:36 | 51.46677 | -1.63388 | 1991 ft | 118 kts | 154° |
| 2026-05-06 12:36 | 51.45940 | -1.62810 | 1991 ft | 117 kts | 154° |
| 2026-05-06 12:36 | 51.45205 | -1.62236 | 1991 ft | 116 kts | 154° |
| 2026-05-06 12:37 | 51.44482 | -1.61672 | 1990 ft | 113 kts | 154° |
| 2026-05-06 12:37 | 51.43787 | -1.61130 | 1990 ft | 111 kts | 154° |
| 2026-05-06 12:37 | 51.43093 | -1.60588 | 1991 ft | 110 kts | 154° |
| 2026-05-06 12:37 | 51.42409 | -1.60053 | 1991 ft | 109 kts | 154° |
| 2026-05-06 12:38 | 51.41724 | -1.59519 | 1991 ft | 108 kts | 154° |
| 2026-05-06 12:38 | 51.41044 | -1.58988 | 1991 ft | 108 kts | 154° |
| 2026-05-06 12:38 | 51.40369 | -1.58461 | 1991 ft | 108 kts | 154° |
| 2026-05-06 12:38 | 51.39700 | -1.57939 | 1991 ft | 108 kts | 154° |
| 2026-05-06 12:39 | 51.39021 | -1.57408 | 1991 ft | 107 kts | 151° |
| 2026-05-06 12:39 | 51.38356 | -1.56870 | 1990 ft | 107 kts | 151° |
| 2026-05-06 12:39 | 51.37694 | -1.56339 | 1990 ft | 106 kts | 152° |
| 2026-05-06 12:39 | 51.37094 | -1.55652 | 1994 ft | 106 kts | 135° |
| 2026-05-06 12:40 | 51.36580 | -1.54821 | 1992 ft | 106 kts | 131° |
| 2026-05-06 12:40 | 51.36076 | -1.53943 | 1991 ft | 106 kts | 130° |
| 2026-05-06 12:40 | 51.35582 | -1.53058 | 1991 ft | 106 kts | 130° |
| 2026-05-06 12:40 | 51.35097 | -1.52180 | 1991 ft | 106 kts | 129° |
| 2026-05-06 12:41 | 51.34614 | -1.51291 | 1991 ft | 106 kts | 127° |
| 2026-05-06 12:41 | 51.34192 | -1.50324 | 1991 ft | 106 kts | 122° |
| 2026-05-06 12:41 | 51.33778 | -1.49345 | 1990 ft | 106 kts | 123° |
| 2026-05-06 12:41 | 51.33348 | -1.48370 | 1990 ft | 106 kts | 123° |
| 2026-05-06 12:42 | 51.32921 | -1.47416 | 1990 ft | 106 kts | 124° |
| 2026-05-06 12:42 | 51.32492 | -1.46460 | 1991 ft | 106 kts | 124° |
| 2026-05-06 12:42 | 51.32020 | -1.45556 | 1982 ft | 106 kts | 141° |
| 2026-05-06 12:42 | 51.31421 | -1.44866 | 1978 ft | 106 kts | 141° |
| 2026-05-06 12:43 | 51.30828 | -1.44137 | 1978 ft | 107 kts | 139° |
| 2026-05-06 12:43 | 51.30249 | -1.43364 | 1978 ft | 108 kts | 138° |
| 2026-05-06 12:43 | 51.29694 | -1.42571 | 1978 ft | 108 kts | 134° |
| 2026-05-06 12:43 | 51.29159 | -1.41750 | 1973 ft | 102 kts | 135° |
| 2026-05-06 12:44 | 51.28683 | -1.41011 | 1959 ft | 89 kts | 134° |
| 2026-05-06 12:44 | 51.28240 | -1.40327 | 1955 ft | 87 kts | 134° |
| 2026-05-06 12:44 | 51.27795 | -1.39645 | 1956 ft | 89 kts | 134° |
| 2026-05-06 12:44 | 51.27336 | -1.38944 | 1956 ft | 91 kts | 134° |
| 2026-05-06 12:45 | 51.26886 | -1.38255 | 1952 ft | 88 kts | 134° |
| 2026-05-06 12:45 | 51.26451 | -1.37555 | 1954 ft | 90 kts | 132° |
| 2026-05-06 12:45 | 51.25544 | -1.36072 | 1958 ft | 96 kts | 132° |
| 2026-05-06 12:46 | 51.24620 | -1.34563 | 1959 ft | 99 kts | 133° |
| 2026-05-06 12:46 | 51.24132 | -1.33764 | 1959 ft | 100 kts | 133° |
| 2026-05-06 12:46 | 51.23634 | -1.32953 | 1958 ft | 101 kts | 133° |
| 2026-05-06 12:47 | 51.23144 | -1.32155 | 1957 ft | 102 kts | 133° |
| 2026-05-06 12:47 | 51.22648 | -1.31335 | 1956 ft | 102 kts | 132° |
| 2026-05-06 12:47 | 51.22155 | -1.30509 | 1955 ft | 103 kts | 132° |
| 2026-05-06 12:47 | 51.21658 | -1.29674 | 1954 ft | 103 kts | 132° |
| 2026-05-06 12:48 | 51.21165 | -1.28846 | 1952 ft | 103 kts | 132° |
| 2026-05-06 12:48 | 51.20667 | -1.28011 | 1951 ft | 103 kts | 132° |
| 2026-05-06 12:48 | 51.20168 | -1.27175 | 1949 ft | 103 kts | 132° |
| 2026-05-06 12:48 | 51.19703 | -1.26311 | 1950 ft | 103 kts | 127° |
| 2026-05-06 12:49 | 51.19269 | -1.25392 | 1950 ft | 103 kts | 125° |
| 2026-05-06 12:49 | 51.18871 | -1.24444 | 1952 ft | 103 kts | 117° |
| 2026-05-06 12:49 | 51.18566 | -1.23417 | 1953 ft | 103 kts | 111° |
| 2026-05-06 12:49 | 51.18328 | -1.22307 | 1877 ft | 110 kts | 93° |
| 2026-05-06 12:50 | 51.18595 | -1.21161 | 1755 ft | 117 kts | 46° |
| 2026-05-06 12:50 | 51.19342 | -1.20660 | 1620 ft | 121 kts | 359° |
| 2026-05-06 12:50 | 51.20106 | -1.21155 | 1468 ft | 118 kts | 321° |
| 2026-05-06 12:50 | 51.20680 | -1.22063 | 1293 ft | 115 kts | 311° |
| 2026-05-06 12:51 | 51.21207 | -1.23012 | 1117 ft | 114 kts | 311° |
| 2026-05-06 12:51 | 51.21646 | -1.24038 | 959 ft | 111 kts | 286° |
| 2026-05-06 12:51 | 51.21364 | -1.24985 | 997 ft | 92 kts | 222° |
| 2026-05-06 12:51 | 51.20874 | -1.25534 | 996 ft | 82 kts | 199° |
| 2026-05-06 12:52 | 51.20338 | -1.25859 | 997 ft | 82 kts | 199° |
| 2026-05-06 12:52 | 51.19796 | -1.26201 | 998 ft | 84 kts | 198° |
| 2026-05-06 12:52 | 51.19247 | -1.26132 | 1008 ft | 77 kts | 148° |
| 2026-05-06 12:52 | 51.18900 | -1.25498 | 926 ft | 76 kts | 117° |
| 2026-05-06 12:53 | 51.18771 | -1.24730 | 872 ft | 72 kts | 81° |
| 2026-05-06 12:53 | 51.18909 | -1.23962 | 769 ft | 71 kts | 53° |
| 2026-05-06 12:53 | 51.19261 | -1.23465 | 643 ft | 66 kts | 31° |
| 2026-05-06 12:53 | 51.19625 | -1.23126 | 553 ft | 51 kts | 30° |
| 2026-05-06 12:54 | 51.19833 | -1.22931 | 553 ft | 16 kts | 22° |
| 2026-05-06 12:54 | 51.19852 | -1.22967 | 553 ft | 6 kts | 210° |
| 2026-05-06 12:54 | 51.19776 | -1.23040 | 553 ft | 14 kts | 212° |
| 2026-05-06 12:54 | 51.19700 | -1.23115 | 553 ft | 11 kts | 208° |
| 2026-05-06 12:55 | 51.19625 | -1.23187 | 553 ft | 16 kts | 205° |
| 2026-05-06 12:55 | 51.19517 | -1.23291 | 553 ft | 14 kts | 213° |
| 2026-05-06 12:55 | 51.19427 | -1.23394 | 553 ft | 15 kts | 223° |
| 2026-05-06 12:55 | 51.19376 | -1.23543 | 553 ft | 16 kts | 250° |
| 2026-05-06 12:56 | 51.19350 | -1.23717 | 553 ft | 13 kts | 266° |
| 2026-05-06 12:56 | 51.19369 | -1.23809 | 553 ft | 7 kts | 236° |
| 2026-05-06 12:56 | 51.19356 | -1.23817 | 553 ft | 0 kts | 170° |